createdAt,value
2018-12-26T00:03:35.657Z,40.43
2018-12-26T00:08:40.689Z,33.42
2018-12-26T00:13:47.424Z,36.88
2018-12-26T00:18:56.000Z,41.67
2018-12-26T00:24:04.936Z,35.93
2018-12-26T00:29:11.023Z,40.20
2018-12-26T00:34:16.000Z,32.45
2018-12-26T00:39:21.746Z,33.57
2018-12-26T00:44:28.945Z,38.80
2018-12-26T00:49:36.045Z,32.23
2018-12-26T00:54:41.050Z,38.25
2018-12-26T00:59:45.503Z,40.00
2018-12-26T01:04:50.801Z,37.38
2018-12-26T01:09:55.606Z,37.43
2018-12-26T01:14:59.921Z,35.67
2018-12-26T01:20:05.365Z,35.43
2018-12-26T01:25:09.895Z,37.30
2018-12-26T01:30:14.650Z,34.98
2018-12-26T01:35:21.078Z,38.90
2018-12-26T01:40:25.484Z,40.80
2018-12-26T01:45:30.133Z,38.13
2018-12-26T01:50:37.422Z,37.03
2018-12-26T01:55:42.195Z,39.27
2018-12-26T02:00:47.449Z,40.00
2018-12-26T02:05:56.160Z,38.45
2018-12-26T02:11:04.618Z,39.77
2018-12-26T02:16:10.555Z,35.93
2018-12-26T02:21:16.665Z,40.45
2018-12-26T02:26:22.190Z,37.40
2018-12-26T02:31:26.430Z,40.27
2018-12-26T02:36:31.525Z,38.77
2018-12-26T02:41:38.988Z,37.80
2018-12-26T02:46:44.952Z,35.70
2018-12-26T02:51:49.778Z,34.50
2018-12-26T02:56:54.879Z,34.63
2018-12-26T03:01:59.562Z,34.30
2018-12-26T03:07:05.242Z,34.40
2018-12-26T03:12:10.459Z,29.23
2018-12-26T03:17:16.359Z,32.57
2018-12-26T03:22:21.734Z,34.07
2018-12-26T03:27:26.607Z,32.90
2018-12-26T03:32:32.411Z,31.50
2018-12-26T03:37:41.715Z,33.37
2018-12-26T03:42:46.305Z,30.57
2018-12-26T03:47:52.713Z,32.03
2018-12-26T03:52:57.730Z,35.67
2018-12-26T03:58:02.398Z,39.10
2018-12-26T04:03:07.200Z,32.30
2018-12-26T04:08:12.653Z,32.70
2018-12-26T04:13:17.365Z,34.40
2018-12-26T04:18:23.421Z,33.43
2018-12-26T04:23:30.388Z,33.07
2018-12-26T04:28:38.256Z,34.67
2018-12-26T04:33:43.743Z,33.83
2018-12-26T04:38:50.514Z,34.83
2018-12-26T04:43:55.104Z,34.80
2018-12-26T04:49:02.538Z,33.57
2018-12-26T04:54:07.444Z,38.47
2018-12-26T04:59:14.717Z,33.30
2018-12-26T05:04:19.930Z,32.70
2018-12-26T05:09:25.488Z,37.30
2018-12-26T05:14:32.426Z,36.80
2018-12-26T05:19:37.356Z,33.30
2018-12-26T05:24:42.708Z,37.07
2018-12-26T05:29:47.355Z,31.67
2018-12-26T05:34:54.404Z,37.63
2018-12-26T05:39:59.701Z,34.87
2018-12-26T05:45:05.679Z,30.10
2018-12-26T05:50:10.706Z,31.77
2018-12-26T05:55:15.324Z,27.37
2018-12-26T06:00:20.375Z,33.05
2018-12-26T06:05:26.886Z,31.40
2018-12-26T06:10:32.068Z,28.53
2018-12-26T06:15:38.173Z,33.53
2018-12-26T06:20:43.319Z,30.67
2018-12-26T06:25:47.537Z,34.40
2018-12-26T06:30:52.814Z,34.83
2018-12-26T06:36:03.328Z,34.73
2018-12-26T06:41:09.101Z,25.17
2018-12-26T06:46:14.421Z,25.92
2018-12-26T06:51:18.798Z,27.70
2018-12-26T06:56:23.104Z,24.70
2018-12-26T07:01:29.009Z,29.05
2018-12-26T07:06:33.814Z,29.73
2018-12-26T07:11:39.042Z,34.77
2018-12-26T07:16:44.094Z,30.17
2018-12-26T07:21:52.866Z,34.90
2018-12-26T07:26:58.379Z,33.37
2018-12-26T07:32:03.762Z,32.47
2018-12-26T07:37:11.686Z,37.33
2018-12-26T07:42:16.408Z,29.87
2018-12-26T07:47:21.217Z,35.80
2018-12-26T07:52:26.843Z,33.43
2018-12-26T07:57:32.654Z,46.13
2018-12-26T08:02:42.717Z,34.90
2018-12-26T08:07:47.235Z,27.43
2018-12-26T08:12:52.569Z,23.93
2018-12-26T08:17:59.975Z,29.27
2018-12-26T08:23:05.019Z,28.23
2018-12-26T08:28:10.589Z,28.57
2018-12-26T08:33:56.311Z,35.87
2018-12-26T08:39:24.897Z,29.60
2018-12-26T08:44:37.162Z,31.20
2018-12-26T08:49:45.519Z,29.13
2018-12-26T08:54:55.644Z,43.67
2018-12-26T09:00:10.079Z,26.87
2018-12-26T09:05:18.099Z,23.17
2018-12-26T09:10:28.059Z,27.30
2018-12-26T09:15:35.748Z,32.63
2018-12-26T09:20:40.937Z,27.13
2018-12-26T09:26:06.030Z,26.60
2018-12-26T09:31:27.059Z,23.43
2018-12-26T09:36:32.812Z,22.30
2018-12-26T09:41:38.116Z,22.40
2018-12-26T09:46:42.372Z,23.37
2018-12-26T09:51:47.313Z,23.80
2018-12-26T09:56:54.600Z,19.57
2018-12-26T10:02:00.126Z,22.70
2018-12-26T10:07:07.477Z,22.20
2018-12-26T10:12:12.879Z,35.90
2018-12-26T10:17:18.499Z,21.73
2018-12-26T10:22:23.490Z,19.20
2018-12-26T10:27:28.286Z,20.83
2018-12-26T10:32:35.723Z,23.07
2018-12-26T10:37:41.132Z,20.93
2018-12-26T10:42:46.642Z,23.97
2018-12-26T10:47:51.384Z,23.57
2018-12-26T10:52:57.016Z,18.85
2018-12-26T10:58:02.163Z,16.80
2018-12-26T11:03:09.173Z,24.33
2018-12-26T11:08:14.761Z,24.27
2018-12-26T11:13:19.197Z,32.15
2018-12-26T11:18:26.260Z,36.50
2018-12-26T11:23:31.492Z,22.03
2018-12-26T11:28:36.869Z,57.80
2018-12-26T11:33:42.604Z,26.73
2018-12-26T11:38:47.052Z,24.67
2018-12-26T11:43:54.025Z,23.30
2018-12-26T11:49:01.269Z,23.67
2018-12-26T11:54:06.977Z,23.30
2018-12-26T11:59:14.945Z,24.10
2018-12-26T12:04:20.002Z,25.47
2018-12-26T12:09:25.339Z,23.90
2018-12-26T12:14:32.849Z,27.83
2018-12-26T12:19:38.027Z,20.80
2018-12-26T12:24:44.108Z,22.23
2018-12-26T12:29:49.671Z,28.43
2018-12-26T12:34:54.052Z,29.03
2018-12-26T12:39:59.037Z,21.10
2018-12-26T12:45:05.014Z,24.10
2018-12-26T12:50:16.544Z,20.63
2018-12-26T12:55:22.823Z,23.30
2018-12-26T13:00:27.917Z,20.32
2018-12-26T13:05:35.301Z,21.73
2018-12-26T13:10:46.098Z,23.67
2018-12-26T13:15:53.420Z,20.07
2018-12-26T13:20:57.970Z,19.43
2018-12-26T13:26:04.811Z,22.13
2018-12-26T13:31:10.214Z,20.80
2018-12-26T13:36:15.193Z,20.27
2018-12-26T13:41:23.111Z,17.02
2018-12-26T13:46:33.669Z,20.70
2018-12-26T13:51:34.108Z,22.10
2018-12-26T13:56:38.655Z,18.27
2018-12-26T14:01:44.628Z,18.70
2018-12-26T14:06:50.655Z,19.77
2018-12-26T14:11:58.375Z,25.03
2018-12-26T14:17:03.397Z,21.20
2018-12-26T14:22:09.968Z,21.20
2018-12-26T14:27:15.904Z,19.70
2018-12-26T14:32:21.496Z,17.93
2018-12-26T14:37:29.680Z,17.63
2018-12-26T14:42:36.287Z,19.07
2018-12-26T14:47:44.576Z,22.17
2018-12-26T14:52:49.225Z,22.53
2018-12-26T14:57:53.532Z,22.23
2018-12-26T15:03:00.002Z,20.77
2018-12-26T15:08:06.331Z,19.30
2018-12-26T15:13:12.137Z,21.27
2018-12-26T15:18:18.188Z,23.83
2018-12-26T15:23:22.526Z,21.03
2018-12-26T15:28:29.172Z,23.57
2018-12-26T15:33:33.669Z,21.00
2018-12-26T15:38:38.583Z,21.47
2018-12-26T15:43:44.625Z,22.30
2018-12-26T15:48:50.312Z,23.70
2018-12-26T15:53:55.900Z,28.43
2018-12-26T15:59:00.587Z,22.83
2018-12-26T16:04:09.492Z,21.27
2018-12-26T16:09:14.952Z,27.70
2018-12-26T16:14:20.964Z,40.70
2018-12-26T16:19:27.806Z,34.23
2018-12-26T16:24:32.458Z,26.10
2018-12-26T16:29:39.099Z,21.33
2018-12-26T16:34:44.553Z,20.57
2018-12-26T16:39:52.494Z,23.47
2018-12-26T16:44:57.037Z,22.93
2018-12-26T16:50:03.056Z,21.77
2018-12-26T16:55:13.383Z,21.27
2018-12-26T17:00:21.585Z,19.63
2018-12-26T17:05:30.045Z,21.87
2018-12-26T17:10:35.947Z,20.80
2018-12-26T17:15:44.906Z,20.53
2018-12-26T17:20:53.764Z,24.00
2018-12-26T17:26:02.855Z,23.75
2018-12-26T17:31:12.884Z,26.33
2018-12-26T17:36:21.070Z,22.70
2018-12-26T17:41:27.321Z,23.23
2018-12-26T17:46:33.719Z,23.83
2018-12-26T17:51:41.391Z,28.70
2018-12-26T17:57:17.495Z,25.87
2018-12-26T18:02:37.536Z,28.07
2018-12-26T18:07:44.046Z,25.97
2018-12-26T18:12:50.116Z,25.60
2018-12-26T18:17:55.274Z,21.53
2018-12-26T18:22:59.836Z,20.43
2018-12-26T18:28:06.655Z,25.02
2018-12-26T18:33:11.093Z,25.83
2018-12-26T18:38:18.273Z,30.43
2018-12-26T18:43:23.144Z,27.50
2018-12-26T18:48:27.574Z,32.90
2018-12-26T18:53:32.714Z,32.67
2018-12-26T18:58:40.984Z,39.97
2018-12-26T19:03:45.541Z,36.43
2018-12-26T19:08:51.174Z,34.37
2018-12-26T19:14:02.217Z,31.70
2018-12-26T19:19:07.677Z,28.53
2018-12-26T19:24:12.731Z,32.23
2018-12-26T19:29:17.578Z,29.37
2018-12-26T19:34:22.362Z,32.37
2018-12-26T19:39:27.275Z,34.70
2018-12-26T19:44:31.747Z,30.17
2018-12-26T19:49:37.727Z,28.75
2018-12-26T19:54:42.020Z,24.80
2018-12-26T19:59:47.989Z,26.03
2018-12-26T20:04:53.371Z,24.60
2018-12-26T20:09:59.402Z,24.70
2018-12-26T20:15:04.425Z,26.20
2018-12-26T20:20:13.614Z,26.10
2018-12-26T20:25:20.164Z,33.57
2018-12-26T20:30:25.205Z,27.57
2018-12-26T20:35:30.076Z,42.37
2018-12-26T20:40:36.271Z,25.85
2018-12-26T20:45:41.852Z,29.90
2018-12-26T20:50:47.756Z,27.33
2018-12-26T20:55:56.978Z,26.20
2018-12-26T21:01:02.795Z,29.33
2018-12-26T21:06:10.820Z,26.20
2018-12-26T21:11:16.285Z,24.57
2018-12-26T21:16:21.277Z,26.17
2018-12-26T21:21:26.227Z,23.87
2018-12-26T21:26:36.476Z,23.83
2018-12-26T21:31:45.761Z,32.23
2018-12-26T21:36:53.653Z,27.13
2018-12-26T21:42:01.531Z,29.50
2018-12-26T21:47:08.535Z,27.37
2018-12-26T21:52:13.345Z,23.97
2018-12-26T21:57:18.704Z,27.80
2018-12-26T22:02:23.990Z,26.97
2018-12-26T22:07:30.131Z,24.57
2018-12-26T22:12:35.413Z,28.63
2018-12-26T22:17:45.421Z,30.87
2018-12-26T22:22:51.906Z,26.83
2018-12-26T22:27:57.085Z,27.77
2018-12-26T22:33:03.058Z,24.60
2018-12-26T22:38:07.881Z,24.60
2018-12-26T22:43:14.591Z,28.90
2018-12-26T22:48:24.458Z,25.20
2018-12-26T22:53:29.414Z,24.77
2018-12-26T22:58:33.885Z,28.70
2018-12-26T23:03:39.008Z,31.27
2018-12-26T23:08:50.610Z,28.43
2018-12-26T23:13:55.106Z,26.07
2018-12-26T23:19:02.312Z,25.63
2018-12-26T23:24:07.110Z,26.35
2018-12-26T23:29:12.720Z,26.75
2018-12-26T23:34:23.278Z,29.13
2018-12-26T23:39:29.879Z,25.95
2018-12-26T23:44:34.832Z,24.73
2018-12-26T23:49:42.488Z,27.50
2018-12-26T23:54:52.969Z,28.07
2018-12-26T23:59:58.925Z,23.93
